Time;durP1;ratioP1;P1;durP2;ratioP2;P2;SDS_P1;SDS_P2;PMS_P1;PMS_P2;Temp;Humidity;BMP_temperature;BMP_pressure;BME280_temperature;BME280_humidity;BME280_pressure;Samples;Min_cycle;Max_cycle;Signal;HPM_P1;HPM_P2
2022/04/29 00:01:22;;;;;;;12.17;7.40;;;9.30;99.90;;;;;;5197712;28;20270;-48
2022/04/29 00:03:53;;;;;;;15.27;7.97;;;9.30;99.90;;;;;;5200907;28;20202;-50
2022/04/29 00:06:25;;;;;;;10.50;6.87;;;9.20;99.90;;;;;;5198698;28;20471;-49
2022/04/29 00:08:55;;;;;;;13.27;7.50;;;9.10;99.90;;;;;;5190491;28;20196;-47
2022/04/29 00:11:27;;;;;;;13.60;7.23;;;9.10;99.90;;;;;;5212974;28;20596;-52
2022/04/29 00:13:58;;;;;;;7.90;6.13;;;9.00;99.90;;;;;;5194987;28;20187;-51
2022/04/29 00:16:28;;;;;;;12.70;7.10;;;9.00;99.90;;;;;;5197939;28;20449;-53
2022/04/29 00:18:59;;;;;;;12.40;7.70;;;9.00;99.90;;;;;;5197328;28;20182;-50
2022/04/29 00:21:29;;;;;;;9.53;7.50;;;8.90;99.90;;;;;;5192417;28;20657;-50
2022/04/29 00:24:00;;;;;;;9.70;6.33;;;8.90;99.90;;;;;;5194739;28;20688;-50
2022/04/29 00:26:31;;;;;;;11.00;6.90;;;8.90;99.90;;;;;;5197380;28;20204;-50
2022/04/29 00:29:01;;;;;;;12.50;6.10;;;8.90;99.90;;;;;;5198320;28;20176;-50
2022/04/29 00:31:32;;;;;;;7.50;6.53;;;8.80;99.90;;;;;;5194893;28;20184;-49
2022/04/29 00:34:03;;;;;;;11.83;7.07;;;8.80;99.90;;;;;;5201657;28;20544;-51
2022/04/29 00:36:33;;;;;;;8.87;6.80;;;8.80;99.90;;;;;;5201910;28;20430;-50
2022/04/29 00:39:04;;;;;;;6.70;6.00;;;8.80;99.90;;;;;;5200286;28;20236;-49
2022/04/29 00:41:34;;;;;;;9.20;5.90;;;8.80;99.90;;;;;;5199290;28;20180;-50
2022/04/29 00:44:08;;;;;;;6.17;5.50;;;8.80;99.90;;;;;;5198647;28;20363;-50
2022/04/29 00:46:43;;;;;;;7.40;6.60;;;8.80;99.90;;;;;;5200081;28;20562;-50
2022/04/29 00:49:15;;;;;;;6.67;6.07;;;8.80;99.90;;;;;;5201432;28;20520;-50
2022/04/29 00:51:51;;;;;;;11.10;6.20;;;8.70;99.90;;;;;;5198789;28;20465;-50
2022/04/29 00:54:34;;;;;;;8.17;6.07;;;8.80;99.90;;;;;;5201655;28;20453;-50
2022/04/29 00:57:13;;;;;;;9.93;5.60;;;8.70;99.90;;;;;;5201232;28;20443;-48
2022/04/29 00:59:52;;;;;;;13.73;6.60;;;8.70;99.90;;;;;;5201167;28;20447;-49
2022/04/29 01:02:23;;;;;;;6.40;5.17;;;8.70;99.90;;;;;;5213326;28;20442;-50
2022/04/29 01:05:02;;;;;;;5.60;5.20;;;8.70;99.90;;;;;;5217675;28;20441;-50
2022/04/29 01:07:34;;;;;;;10.30;5.93;;;8.70;99.90;;;;;;5196973;28;20469;-50
2022/04/29 01:10:06;;;;;;;10.00;5.63;;;8.70;99.90;;;;;;5203949;28;20445;-50
2022/04/29 01:12:38;;;;;;;9.23;5.33;;;8.60;99.90;;;;;;5201059;28;20966;-51
2022/04/29 01:15:15;;;;;;;4.70;4.37;;;8.60;99.90;;;;;;5201913;28;20438;-50
2022/04/29 01:17:58;;;;;;;11.27;4.87;;;8.60;99.90;;;;;;5197711;28;20434;-49
2022/04/29 01:20:31;;;;;;;8.87;5.20;;;8.50;99.90;;;;;;5196887;28;20438;-51
2022/04/29 01:23:08;;;;;;;6.17;5.47;;;8.50;99.90;;;;;;5202582;28;20476;-51
2022/04/29 01:25:40;;;;;;;5.30;4.80;;;8.50;99.90;;;;;;5199216;28;20449;-49
2022/04/29 01:28:10;;;;;;;5.60;5.10;;;8.50;99.90;;;;;;5202562;28;20438;-47
2022/04/29 01:30:42;;;;;;;6.17;5.00;;;8.40;99.90;;;;;;5200253;28;20451;-50
2022/04/29 01:33:14;;;;;;;6.63;4.63;;;8.40;99.90;;;;;;5199624;28;20196;-49
2022/04/29 01:35:45;;;;;;;7.57;5.17;;;8.40;99.90;;;;;;5203752;28;20480;-50
2022/04/29 01:38:15;;;;;;;6.87;5.33;;;8.50;99.90;;;;;;5181235;28;20427;-49
2022/04/29 01:40:46;;;;;;;14.57;5.50;;;8.50;99.90;;;;;;5202363;28;20219;-50
2022/04/29 01:43:17;;;;;;;4.13;3.83;;;8.60;99.90;;;;;;5198419;28;20200;-49
2022/04/29 01:45:48;;;;;;;7.23;5.30;;;8.60;99.90;;;;;;5213420;28;20543;-52
2022/04/29 01:48:19;;;;;;;6.70;4.80;;;8.50;99.90;;;;;;5200806;28;20434;-49
2022/04/29 01:50:49;;;;;;;6.93;5.50;;;8.50;99.90;;;;;;5215511;28;20192;-52
2022/04/29 01:53:20;;;;;;;10.37;6.03;;;8.50;99.90;;;;;;5198342;28;20565;-47
2022/04/29 01:55:50;;;;;;;5.80;4.97;;;8.40;99.90;;;;;;5203461;28;20187;-50
2022/04/29 01:58:21;;;;;;;6.90;4.83;;;8.40;99.90;;;;;;5202518;28;20180;-50
2022/04/29 02:00:52;;;;;;;7.33;5.63;;;8.30;99.90;;;;;;5204068;28;20545;-49
2022/04/29 02:03:22;;;;;;;15.03;5.60;;;8.20;99.90;;;;;;5194929;28;20446;-49
2022/04/29 02:05:53;;;;;;;5.90;4.80;;;8.20;99.90;;;;;;5199352;28;20179;-50
2022/04/29 02:08:23;;;;;;;11.03;4.67;;;8.10;99.90;;;;;;5201591;28;20225;-49
2022/04/29 02:10:54;;;;;;;7.70;5.67;;;8.10;99.90;;;;;;5197763;28;20229;-49
2022/04/29 02:13:24;;;;;;;13.50;5.30;;;8.10;99.90;;;;;;5204865;28;20235;-50
2022/04/29 02:15:57;;;;;;;6.47;5.07;;;8.00;99.90;;;;;;5194922;28;20263;-49
2022/04/29 02:18:27;;;;;;;7.30;4.83;;;8.00;99.90;;;;;;5213638;28;20218;-49
2022/04/29 02:20:58;;;;;;;7.47;5.00;;;7.90;99.90;;;;;;5200925;28;20953;-49
2022/04/29 02:23:29;;;;;;;7.33;5.60;;;7.90;99.90;;;;;;5194698;28;20206;-50
2022/04/29 02:26:00;;;;;;;12.17;6.50;;;7.90;99.90;;;;;;5202905;28;20242;-49
2022/04/29 02:28:32;;;;;;;7.70;5.77;;;7.80;99.90;;;;;;5198756;28;20446;-49
2022/04/29 02:31:03;;;;;;;7.20;5.30;;;7.80;99.90;;;;;;5197018;28;20442;-49
2022/04/29 02:33:34;;;;;;;13.63;5.57;;;7.80;99.90;;;;;;5197121;28;20448;-49
2022/04/29 02:36:05;;;;;;;6.77;3.97;;;7.80;99.90;;;;;;5195002;28;20870;-50
2022/04/29 02:38:36;;;;;;;11.20;5.00;;;7.70;99.90;;;;;;5215829;28;20464;-51
2022/04/29 02:41:07;;;;;;;6.90;5.30;;;7.70;99.90;;;;;;5213267;28;20439;-49
2022/04/29 02:43:38;;;;;;;6.27;4.40;;;7.60;99.90;;;;;;5198640;28;20265;-49
2022/04/29 02:46:09;;;;;;;8.30;6.00;;;7.60;99.90;;;;;;5209838;28;20271;-50
2022/04/29 02:48:40;;;;;;;5.80;5.20;;;7.60;99.90;;;;;;5200050;28;20883;-50
2022/04/29 02:51:10;;;;;;;5.83;5.33;;;7.60;99.90;;;;;;5214271;28;20514;-50
2022/04/29 02:53:41;;;;;;;5.20;4.70;;;7.50;99.90;;;;;;5200112;28;20269;-50
2022/04/29 02:56:12;;;;;;;7.60;4.33;;;7.50;99.90;;;;;;5198165;28;20701;-50
2022/04/29 02:58:43;;;;;;;10.10;4.47;;;7.50;99.90;;;;;;5210721;28;20446;-51
2022/04/29 03:01:14;;;;;;;4.73;4.27;;;7.50;99.90;;;;;;5193483;28;20192;-48
2022/04/29 03:03:44;;;;;;;4.67;3.73;;;7.40;99.90;;;;;;5198715;28;20749;-50
2022/04/29 03:06:15;;;;;;;5.03;4.60;;;7.40;99.90;;;;;;5199365;28;20218;-49
2022/04/29 03:08:45;;;;;;;8.33;5.13;;;7.40;99.90;;;;;;5198399;28;20191;-49
2022/04/29 03:11:16;;;;;;;4.93;4.50;;;7.30;99.90;;;;;;5216591;28;20172;-49
2022/04/29 03:13:46;;;;;;;8.37;4.87;;;7.30;99.90;;;;;;5189881;28;20203;-49
2022/04/29 03:16:17;;;;;;;6.70;4.50;;;7.30;99.90;;;;;;5200559;28;20187;-50
2022/04/29 03:18:48;;;;;;;5.30;4.80;;;7.30;99.90;;;;;;5194502;28;20184;-51
2022/04/29 03:21:21;;;;;;;7.00;4.70;;;7.30;99.90;;;;;;5193788;28;20231;-50
2022/04/29 03:23:52;;;;;;;8.87;4.60;;;7.30;99.90;;;;;;5194753;28;20549;-48
2022/04/29 03:26:22;;;;;;;8.63;4.93;;;7.30;99.90;;;;;;5177174;28;20458;-48
2022/04/29 03:28:53;;;;;;;5.07;4.57;;;7.30;99.90;;;;;;5202295;28;20215;-47
2022/04/29 03:31:24;;;;;;;7.20;4.30;;;7.40;99.90;;;;;;5193853;28;20180;-46
2022/04/29 03:33:54;;;;;;;8.70;4.40;;;7.40;99.90;;;;;;5201167;28;20311;-56
2022/04/29 03:36:25;;;;;;;6.10;5.47;;;7.40;99.90;;;;;;5195249;28;20961;-56
2022/04/29 03:38:56;;;;;;;13.03;4.77;;;7.40;99.90;;;;;;5187058;28;20176;-49
2022/04/29 03:41:27;;;;;;;6.10;4.13;;;7.40;99.90;;;;;;5195770;28;20640;-47
2022/04/29 03:43:57;;;;;;;5.00;4.50;;;7.40;99.90;;;;;;5197800;28;20454;-47
2022/04/29 03:46:28;;;;;;;5.10;4.60;;;7.40;99.90;;;;;;5201821;28;20203;-46
2022/04/29 03:51:47;;;;;;;8.63;5.40;;;7.40;99.90;;;;;;5200314;28;20183;-45
2022/04/29 03:54:18;;;;;;;4.93;4.20;;;7.50;99.90;;;;;;5209153;28;20462;-45
2022/04/29 03:56:48;;;;;;;5.47;4.70;;;7.60;99.90;;;;;;5195021;28;20191;-46
2022/04/29 03:59:19;;;;;;;10.33;5.30;;;7.60;99.90;;;;;;5213637;28;20184;-49
2022/04/29 04:01:49;;;;;;;8.50;5.00;;;7.60;99.90;;;;;;5199618;28;20701;-46
2022/04/29 04:04:20;;;;;;;11.83;5.50;;;7.70;99.90;;;;;;5198418;28;20732;-47
2022/04/29 04:06:51;;;;;;;7.00;4.43;;;7.80;99.90;;;;;;5200249;28;20199;-46
2022/04/29 04:09:22;;;;;;;5.13;4.63;;;7.90;99.90;;;;;;5196239;28;20191;-51
2022/04/29 04:11:53;;;;;;;5.43;4.10;;;8.00;99.90;;;;;;5197027;28;20188;-47
2022/04/29 04:14:24;;;;;;;4.50;3.80;;;8.10;99.90;;;;;;5201655;28;20453;-48
2022/04/29 04:16:54;;;;;;;3.90;3.60;;;8.20;99.90;;;;;;5200373;28;20266;-49
2022/04/29 04:19:25;;;;;;;5.03;3.63;;;8.40;99.90;;;;;;5200109;28;20195;-49
2022/04/29 04:21:55;;;;;;;3.30;3.10;;;8.50;99.90;;;;;;5194627;28;20206;-49
2022/04/29 04:24:26;;;;;;;4.80;4.33;;;8.60;99.90;;;;;;5213500;28;20727;-47
2022/04/29 04:26:56;;;;;;;10.07;4.40;;;8.80;99.90;;;;;;5196214;28;20265;-47
2022/04/29 04:29:27;;;;;;;5.93;5.03;;;8.90;99.90;;;;;;5199509;28;20180;-49
2022/04/29 04:31:57;;;;;;;8.63;5.10;;;9.00;99.90;;;;;;5201916;28;20198;-49
2022/04/29 04:37:18;;;;;;;4.10;3.70;;;9.40;99.90;;;;;;5204475;28;20246;-46
2022/04/29 04:39:50;;;;;;;7.13;4.53;;;9.60;99.90;;;;;;5198422;28;20866;-50
2022/04/29 04:42:21;;;;;;;8.30;5.03;;;9.90;99.90;;;;;;5190945;28;21278;-47
2022/04/29 04:44:52;;;;;;;6.00;3.80;;;10.10;99.90;;;;;;5191058;28;20472;-48
2022/04/29 04:47:23;;;;;;;5.10;4.60;;;10.40;96.90;;;;;;5202721;28;21056;-47
2022/04/29 04:49:54;;;;;;;5.13;3.30;;;10.70;93.80;;;;;;5193629;28;20435;-46
2022/04/29 04:52:25;;;;;;;11.60;4.53;;;10.80;91.40;;;;;;5214797;28;20199;-49
2022/04/29 04:54:55;;;;;;;10.93;4.40;;;11.30;90.80;;;;;;5201923;28;20453;-54
2022/04/29 04:57:26;;;;;;;8.73;4.83;;;12.30;82.90;;;;;;5196389;28;20656;-52
2022/04/29 04:59:56;;;;;;;5.50;3.57;;;13.10;68.20;;;;;;5197450;28;20652;-49
2022/04/29 05:02:27;;;;;;;3.80;3.43;;;13.00;64.80;;;;;;5181327;28;20204;-47
2022/04/29 05:04:58;;;;;;;9.63;3.47;;;12.90;64.40;;;;;;5208451;28;20195;-47
2022/04/29 05:07:28;;;;;;;9.90;4.60;;;12.80;63.10;;;;;;5215337;28;20206;-53
2022/04/29 05:09:59;;;;;;;6.73;4.50;;;12.90;62.90;;;;;;5199498;28;20439;-47
2022/04/29 05:12:30;;;;;;;6.27;3.90;;;13.10;60.60;;;;;;5197545;28;20548;-48
2022/04/29 05:15:01;;;;;;;3.57;3.30;;;13.20;58.70;;;;;;5197297;28;20187;-47
2022/04/29 05:17:32;;;;;;;7.53;4.23;;;14.20;56.80;;;;;;5196198;28;20191;-46
2022/04/29 05:20:03;;;;;;;9.63;4.10;;;15.70;51.30;;;;;;5201141;28;20801;-46
2022/04/29 05:22:34;;;;;;;6.97;4.10;;;17.30;46.60;;;;;;5203615;28;20315;-46
2022/04/29 05:25:06;;;;;;;5.60;3.30;;;18.50;42.60;;;;;;5210340;28;20539;-49
2022/04/29 05:27:36;;;;;;;6.00;3.57;;;19.30;40.30;;;;;;5195166;28;20212;-49
2022/04/29 05:30:08;;;;;;;7.17;4.00;;;19.30;39.10;;;;;;5203162;28;20442;-47
2022/04/29 05:32:39;;;;;;;4.00;3.70;;;18.50;39.30;;;;;;5207802;28;20225;-47
2022/04/29 05:35:10;;;;;;;5.60;3.43;;;17.40;40.60;;;;;;5210621;28;20438;-47
2022/04/29 05:37:40;;;;;;;14.20;4.13;;;16.80;42.00;;;;;;5206611;28;20437;-46
2022/04/29 05:43:02;;;;;;;8.90;3.20;;;19.00;40.10;;;;;;5188613;28;20227;-47
2022/04/29 05:45:32;;;;;;;3.57;3.30;;;20.50;36.60;;;;;;5198220;28;20545;-49
2022/04/29 05:48:03;;;;;;;9.17;4.07;;;21.20;35.10;;;;;;5196260;28;20993;-55
2022/04/29 05:50:34;;;;;;;11.07;4.17;;;20.50;34.50;;;;;;5198723;28;20194;-47
2022/04/29 05:53:04;;;;;;;31.20;4.70;;;19.60;34.50;;;;;;5205845;28;20718;-48
2022/04/29 05:55:36;;;;;;;6.17;4.27;;;18.60;36.40;;;;;;5214448;28;20204;-47
2022/04/29 05:58:06;;;;;;;5.40;3.40;;;18.00;37.30;;;;;;5205367;28;20179;-46
2022/04/29 06:00:37;;;;;;;18.77;5.93;;;18.00;37.70;;;;;;5202959;28;20434;-47
2022/04/29 06:03:07;;;;;;;8.40;4.50;;;18.00;38.10;;;;;;5204263;28;20213;-48
2022/04/29 06:05:39;;;;;;;8.37;4.83;;;18.20;37.80;;;;;;5178791;28;20192;-46
2022/04/29 06:08:09;;;;;;;10.60;5.27;;;18.70;37.40;;;;;;5193707;28;20275;-51
2022/04/29 06:10:40;;;;;;;7.20;4.97;;;19.30;36.60;;;;;;5209805;28;20446;-49
2022/04/29 06:13:11;;;;;;;7.03;4.30;;;20.10;35.10;;;;;;5203506;28;20566;-48
2022/04/29 06:15:41;;;;;;;12.03;3.90;;;21.00;33.90;;;;;;5207321;28;20179;-48
2022/04/29 06:18:12;;;;;;;6.80;3.57;;;21.70;33.20;;;;;;5203131;28;20589;-47
2022/04/29 06:20:42;;;;;;;16.77;4.93;;;22.60;30.90;;;;;;5203398;28;20192;-48
2022/04/29 06:23:13;;;;;;;12.00;4.43;;;23.50;29.90;;;;;;5204179;28;20710;-47
2022/04/29 06:25:43;;;;;;;11.30;4.10;;;23.90;29.20;;;;;;5203657;28;20195;-47
2022/04/29 06:28:14;;;;;;;9.43;4.10;;;23.90;29.30;;;;;;5200557;28;20218;-47
2022/04/29 06:30:45;;;;;;;5.80;4.10;;;24.90;28.50;;;;;;5195038;28;20202;-59
2022/04/29 06:33:16;;;;;;;6.63;4.27;;;25.40;27.70;;;;;;5197022;28;20454;-46
2022/04/29 06:35:47;;;;;;;7.47;4.50;;;25.40;27.10;;;;;;5210451;28;20183;-47
2022/04/29 06:38:18;;;;;;;9.43;3.83;;;25.40;27.30;;;;;;5220241;28;20176;-47
2022/04/29 06:40:50;;;;;;;11.00;3.60;;;25.00;27.10;;;;;;5206214;28;20423;-47
2022/04/29 06:43:20;;;;;;;2.70;2.50;;;23.60;26.80;;;;;;5199825;28;20200;-49
2022/04/29 06:45:51;;;;;;;4.73;2.53;;;22.10;27.40;;;;;;5201874;28;20446;-53
2022/04/29 06:48:21;;;;;;;3.70;2.73;;;21.70;28.20;;;;;;5199960;28;20195;-48
2022/04/29 06:50:52;;;;;;;4.43;2.03;;;21.60;27.90;;;;;;5203097;28;20564;-47
2022/04/29 06:53:23;;;;;;;4.80;2.07;;;21.30;27.80;;;;;;5205420;28;20230;-47
2022/04/29 06:55:54;;;;;;;3.50;2.23;;;21.60;28.20;;;;;;5200072;28;20176;-48
2022/04/29 06:58:24;;;;;;;4.17;2.20;;;22.50;27.70;;;;;;5196722;28;20312;-50
2022/04/29 07:00:55;;;;;;;8.43;2.30;;;23.50;26.90;;;;;;5199982;28;20191;-50
2022/04/29 07:03:25;;;;;;;5.93;2.50;;;24.70;26.10;;;;;;5211584;28;20207;-48
2022/04/29 07:05:59;;;;;;;6.40;2.70;;;26.10;25.20;;;;;;5202819;28;20202;-47
2022/04/29 07:08:29;;;;;;;5.30;2.50;;;27.00;24.20;;;;;;5200279;28;20403;-47
2022/04/29 07:11:00;;;;;;;2.37;2.10;;;27.50;23.30;;;;;;5199482;28;20459;-56
2022/04/29 07:13:31;;;;;;;4.83;2.50;;;28.00;22.90;;;;;;5202565;28;20198;-46
2022/04/29 07:16:02;;;;;;;2.70;1.80;;;27.50;23.20;;;;;;5199223;28;20184;-48
2022/04/29 07:18:32;;;;;;;4.33;2.10;;;27.20;23.10;;;;;;5201118;28;20453;-50
2022/04/29 07:21:04;;;;;;;9.30;2.10;;;26.60;23.20;;;;;;5198594;28;20207;-49
2022/04/29 07:23:34;;;;;;;4.50;1.70;;;25.90;23.20;;;;;;5198905;28;20301;-48
2022/04/29 07:26:05;;;;;;;5.07;2.67;;;24.80;24.20;;;;;;5200513;28;20521;-48
2022/04/29 07:28:35;;;;;;;2.43;2.23;;;24.20;24.60;;;;;;5213562;28;20185;-50
2022/04/29 07:31:06;;;;;;;5.67;2.23;;;25.40;24.20;;;;;;5183781;28;20187;-47
2022/04/29 07:33:36;;;;;;;5.10;2.10;;;26.00;23.50;;;;;;5196058;28;20199;-49
2022/04/29 07:41:45;;;;;;;3.90;2.00;;;23.40;24.20;;;;;;5198832;28;20950;-47
2022/04/29 07:44:16;;;;;;;4.90;2.07;;;22.90;25.40;;;;;;5213722;28;20561;-54
2022/04/29 07:46:49;;;;;;;8.13;2.30;;;23.90;25.00;;;;;;5220985;28;20199;-48
2022/04/29 07:49:20;;;;;;;3.83;2.10;;;24.30;24.50;;;;;;5208824;28;20186;-48
2022/04/29 07:51:50;;;;;;;4.80;2.10;;;24.80;24.00;;;;;;5215402;28;20437;-49
2022/04/29 07:54:23;;;;;;;3.33;1.50;;;24.70;23.90;;;;;;5196147;28;20458;-51
2022/04/29 07:56:53;;;;;;;3.33;1.97;;;24.90;24.00;;;;;;5194918;28;20682;-50
2022/04/29 07:59:24;;;;;;;7.20;2.17;;;25.10;23.60;;;;;;5192193;28;20442;-50
2022/04/29 08:01:54;;;;;;;13.70;2.40;;;25.80;23.50;;;;;;5193000;28;20620;-49
2022/04/29 08:04:25;;;;;;;8.30;2.50;;;26.30;23.20;;;;;;5194684;28;20204;-50
2022/04/29 08:06:56;;;;;;;6.73;2.40;;;27.10;22.60;;;;;;5212402;28;20638;-49
2022/04/29 08:09:26;;;;;;;4.53;1.93;;;27.20;22.00;;;;;;5195019;28;20709;-50
2022/04/29 08:11:57;;;;;;;8.70;1.77;;;27.20;22.20;;;;;;5197717;28;20191;-49
2022/04/29 08:14:27;;;;;;;2.87;2.17;;;27.20;22.10;;;;;;5202973;28;20214;-49
2022/04/29 08:16:58;;;;;;;7.83;2.50;;;26.60;22.10;;;;;;5204691;28;20233;-51
2022/04/29 08:19:30;;;;;;;5.50;2.30;;;25.70;23.10;;;;;;5206196;28;20662;-50
2022/04/29 08:22:02;;;;;;;5.97;2.30;;;25.80;23.30;;;;;;5201896;28;20559;-49
2022/04/29 08:24:33;;;;;;;6.47;2.20;;;25.40;23.20;;;;;;5206292;28;20462;-50
2022/04/29 08:27:04;;;;;;;3.07;1.70;;;25.10;23.40;;;;;;5199482;28;20463;-50
2022/04/29 08:29:35;;;;;;;3.90;2.60;;;24.50;23.70;;;;;;5206877;28;20184;-50
2022/04/29 08:32:06;;;;;;;3.97;2.50;;;24.30;24.30;;;;;;5196322;28;20442;-50
2022/04/29 08:34:37;;;;;;;6.33;2.80;;;24.30;24.40;;;;;;5195848;28;20254;-49
2022/04/29 08:37:08;;;;;;;2.13;1.90;;;24.70;24.70;;;;;;5199846;28;20871;-50
2022/04/29 08:39:39;;;;;;;2.70;2.60;;;24.40;24.50;;;;;;5199849;28;20434;-52
2022/04/29 08:42:10;;;;;;;4.43;2.60;;;24.30;24.80;;;;;;5200271;28;20422;-50
2022/04/29 08:44:42;;;;;;;6.47;3.70;;;23.20;25.20;;;;;;5195410;28;20199;-49
2022/04/29 08:47:13;;;;;;;7.77;2.60;;;23.10;25.90;;;;;;5196242;28;20545;-51
2022/04/29 08:49:46;;;;;;;6.47;2.77;;;22.80;26.00;;;;;;5210788;28;20884;-50
2022/04/29 08:52:17;;;;;;;7.10;2.60;;;22.60;26.40;;;;;;5202887;28;20453;-50
2022/04/29 09:00:30;;;;;;;7.40;3.00;;;21.10;27.60;;;;;;5205220;28;20469;-51
2022/04/29 09:03:02;;;;;;;6.30;3.37;;;19.90;28.70;;;;;;5200347;28;20458;-49
2022/04/29 09:05:34;;;;;;;3.37;3.07;;;18.80;29.90;;;;;;5202067;28;20520;-50
2022/04/29 09:08:05;;;;;;;3.73;2.30;;;18.10;30.80;;;;;;5200905;28;20546;-50
2022/04/29 09:10:36;;;;;;;11.70;3.37;;;18.00;31.50;;;;;;5200950;28;20439;-52
2022/04/29 09:13:14;;;;;;;4.87;2.63;;;18.20;31.80;;;;;;5211446;28;20455;-49
2022/04/29 09:15:57;;;;;;;6.13;3.30;;;18.40;31.80;;;;;;5199252;28;20442;-52
2022/04/29 09:18:39;;;;;;;5.80;2.70;;;18.70;31.20;;;;;;5207022;28;20433;-51
2022/04/29 09:21:14;;;;;;;5.63;2.37;;;19.20;30.60;;;;;;5198983;28;20472;-51
2022/04/29 09:23:49;;;;;;;9.10;3.40;;;19.40;30.30;;;;;;5205000;28;20813;-50
2022/04/29 09:26:22;;;;;;;2.80;2.60;;;19.60;30.20;;;;;;5195849;28;20962;-50
2022/04/29 09:28:55;;;;;;;8.73;3.50;;;19.80;30.40;;;;;;5203827;28;20443;-49
2022/04/29 09:31:25;;;;;;;8.37;3.97;;;20.00;30.00;;;;;;5216803;28;20774;-49
2022/04/29 09:33:57;;;;;;;14.00;3.90;;;19.80;29.70;;;;;;5201058;28;20457;-49
2022/04/29 09:36:28;;;;;;;5.60;3.40;;;19.20;30.00;;;;;;5206440;28;20180;-48
2022/04/29 09:41:55;;;;;;;11.13;3.00;;;18.90;31.50;;;;;;5201271;28;20840;-50
2022/04/29 09:44:34;;;;;;;8.30;3.77;;;19.10;31.10;;;;;;5201986;28;20511;-50
2022/04/29 09:47:15;;;;;;;6.60;2.93;;;19.40;30.90;;;;;;5201929;28;20458;-48
2022/04/29 09:49:58;;;;;;;4.30;3.73;;;19.20;30.90;;;;;;5197860;28;20435;-51
2022/04/29 09:52:32;;;;;;;3.90;3.37;;;19.10;31.30;;;;;;5193780;28;20697;-50
2022/04/29 09:55:10;;;;;;;4.37;3.20;;;19.00;31.20;;;;;;5203875;28;20427;-49
2022/04/29 09:57:59;;;;;;;11.03;3.50;;;18.90;31.40;;;;;;5203899;28;20449;-52
2022/04/29 10:00:30;;;;;;;4.73;3.07;;;18.80;31.90;;;;;;5203284;28;20802;-51
2022/04/29 10:03:03;;;;;;;8.50;4.27;;;18.70;32.10;;;;;;5200502;28;20455;-49
2022/04/29 10:05:36;;;;;;;8.20;3.77;;;18.60;32.40;;;;;;5205981;28;20671;-50
2022/04/29 10:08:08;;;;;;;4.80;3.50;;;18.70;32.60;;;;;;5204611;28;20462;-51
2022/04/29 10:10:38;;;;;;;15.20;4.60;;;18.70;32.50;;;;;;5203028;28;20430;-51
2022/04/29 10:13:10;;;;;;;6.87;3.03;;;18.70;32.30;;;;;;5203098;28;20497;-50
2022/04/29 10:15:41;;;;;;;5.00;3.43;;;18.80;32.20;;;;;;5204456;28;20183;-49
2022/04/29 10:21:16;;;;;;;5.07;3.67;;;18.60;32.00;;;;;;5210806;28;20448;-51
2022/04/29 10:23:49;;;;;;;8.00;2.67;;;18.70;32.50;;;;;;5196884;28;20472;-51
2022/04/29 10:26:22;;;;;;;7.00;3.63;;;18.80;32.10;;;;;;5205192;28;20581;-51
2022/04/29 10:28:53;;;;;;;9.30;5.17;;;18.90;32.20;;;;;;5194549;28;20431;-51
2022/04/29 10:31:27;;;;;;;7.33;3.63;;;19.00;31.70;;;;;;5194343;28;20442;-50
2022/04/29 10:34:26;;;;;;;10.10;5.60;;;19.10;31.60;;;;;;5192947;28;20465;-51
2022/04/29 10:36:57;;;;;;;6.93;3.47;;;19.20;31.30;;;;;;5192568;28;20439;-49
2022/04/29 10:39:28;;;;;;;6.90;3.60;;;19.20;30.70;;;;;;5195992;28;20964;-50
2022/04/29 10:42:09;;;;;;;3.93;3.53;;;19.10;31.00;;;;;;5198031;28;20447;-50
2022/04/29 10:45:06;;;;;;;5.23;4.10;;;18.70;31.00;;;;;;5193612;28;20230;-50
2022/04/29 10:47:41;;;;;;;4.30;2.93;;;18.50;31.60;;;;;;5203271;28;20469;-50
2022/04/29 10:50:36;;;;;;;7.93;5.73;;;18.50;31.80;;;;;;5205923;28;20441;-50
2022/04/29 10:53:11;;;;;;;7.07;4.30;;;18.60;31.80;;;;;;5208348;28;20465;-51
2022/04/29 10:55:42;;;;;;;10.07;5.00;;;18.60;31.60;;;;;;5200641;28;20957;-51
2022/04/29 10:58:20;;;;;;;4.43;3.77;;;18.90;31.80;;;;;;5203319;28;20456;-50
2022/04/29 11:00:56;;;;;;;4.60;2.97;;;19.00;31.10;;;;;;5192624;28;20203;-51
2022/04/29 11:03:52;;;;;;;6.13;3.80;;;19.20;31.30;;;;;;5199531;28;20485;-50
2022/04/29 11:06:42;;;;;;;11.90;4.20;;;19.40;30.80;;;;;;5199877;28;20560;-52
2022/04/29 11:09:46;;;;;;;7.50;3.30;;;19.50;30.90;;;;;;5201851;28;20625;-51
2022/04/29 11:12:34;;;;;;;22.03;5.37;;;19.70;30.70;;;;;;5198928;28;20899;-51
2022/04/29 11:15:16;;;;;;;4.20;3.40;;;19.80;30.30;;;;;;5202351;28;20485;-51
2022/04/29 11:17:47;;;;;;;7.10;3.70;;;19.90;30.50;;;;;;5210036;28;20978;-51
2022/04/29 11:20:23;;;;;;;10.60;4.00;;;20.00;29.80;;;;;;5205384;28;20431;-51
2022/04/29 11:25:54;;;;;;;5.37;3.70;;;20.10;29.50;;;;;;5192379;28;20427;-51
2022/04/29 11:28:26;;;;;;;4.77;3.87;;;19.90;30.00;;;;;;5217352;28;20480;-50
2022/04/29 11:31:05;;;;;;;10.13;4.40;;;19.80;30.10;;;;;;5208698;28;20441;-51
2022/04/29 11:33:39;;;;;;;3.60;3.40;;;19.90;30.00;;;;;;5190741;28;20489;-50
2022/04/29 11:36:12;;;;;;;3.70;3.20;;;19.60;29.50;;;;;;5202937;28;20441;-51
2022/04/29 11:38:44;;;;;;;12.23;5.03;;;19.40;29.90;;;;;;5211111;28;20822;-49
2022/04/29 11:41:17;;;;;;;3.83;3.43;;;19.10;30.20;;;;;;5199708;28;20430;-52
2022/04/29 11:43:49;;;;;;;8.70;4.40;;;19.00;30.40;;;;;;5200145;28;20493;-50
2022/04/29 11:46:21;;;;;;;8.13;3.30;;;19.10;30.40;;;;;;5195285;28;20526;-50
2022/04/29 11:48:57;;;;;;;6.47;4.67;;;19.10;30.90;;;;;;5196835;28;20434;-51
2022/04/29 11:51:30;;;;;;;5.77;3.20;;;19.40;30.40;;;;;;5212878;28;20865;-50
2022/04/29 11:54:03;;;;;;;12.13;4.63;;;19.50;30.10;;;;;;5202370;28;20580;-50
2022/04/29 11:56:37;;;;;;;3.90;3.03;;;19.40;30.00;;;;;;5196021;28;20790;-51
2022/04/29 11:59:08;;;;;;;7.63;3.70;;;19.30;30.50;;;;;;5189948;28;23362;-50
2022/04/29 12:01:40;;;;;;;8.43;4.00;;;19.60;30.00;;;;;;5191975;28;20456;-51
2022/04/29 12:04:13;;;;;;;5.13;4.10;;;19.80;29.60;;;;;;5194574;28;20466;-50
2022/04/29 12:06:56;;;;;;;8.70;4.30;;;20.00;29.50;;;;;;5194767;28;20569;-50
2022/04/29 12:09:33;;;;;;;13.33;4.80;;;20.30;29.40;;;;;;5193415;28;24474;-49
2022/04/29 12:12:28;;;;;;;7.00;3.93;;;20.40;29.50;;;;;;5213148;28;20463;-50
2022/04/29 12:14:59;;;;;;;6.30;3.27;;;20.70;29.60;;;;;;5203938;28;20438;-51
2022/04/29 12:17:40;;;;;;;8.47;4.60;;;20.80;28.90;;;;;;5194999;28;20492;-51
2022/04/29 12:20:19;;;;;;;3.43;3.13;;;20.90;29.20;;;;;;5214367;28;20211;-50
2022/04/29 12:22:51;;;;;;;13.90;3.30;;;21.00;29.10;;;;;;5195037;28;23197;-51
2022/04/29 12:25:31;;;;;;;8.57;5.90;;;21.20;28.90;;;;;;5199850;28;20441;-51
2022/04/29 12:28:05;;;;;;;9.97;5.43;;;21.30;28.20;;;;;;5195148;28;20469;-50
2022/04/29 12:36:16;;;;;;;4.17;3.50;;;20.10;28.60;;;;;;5200630;28;20472;-50
2022/04/29 12:38:46;;;;;;;4.60;2.37;;;19.70;29.10;;;;;;5194451;28;20503;-50
2022/04/29 12:41:25;;;;;;;3.80;2.67;;;19.80;29.50;;;;;;5194841;28;20438;-51
2022/04/29 12:47:21;;;;;;;5.13;3.37;;;20.50;29.00;;;;;;5203551;28;20522;-51
2022/04/29 12:49:52;;;;;;;9.73;5.23;;;20.60;28.70;;;;;;5200551;28;20442;-50
2022/04/29 12:52:22;;;;;;;10.13;4.10;;;20.50;28.20;;;;;;5205262;28;20448;-52
2022/04/29 12:54:57;;;;;;;8.20;3.50;;;20.60;28.10;;;;;;5200432;28;20248;-54
2022/04/29 12:57:32;;;;;;;13.70;3.70;;;20.50;28.50;;;;;;5203735;28;20310;-50
2022/04/29 13:00:03;;;;;;;9.33;4.40;;;20.40;28.50;;;;;;5204850;28;20437;-52
2022/04/29 13:02:34;;;;;;;7.50;4.60;;;20.30;28.30;;;;;;5196452;28;20507;-50
2022/04/29 13:05:05;;;;;;;5.57;4.50;;;20.30;28.50;;;;;;5200474;28;20438;-51
2022/04/29 13:07:36;;;;;;;8.80;4.50;;;20.30;28.40;;;;;;5215093;28;20210;-51
2022/04/29 13:10:08;;;;;;;9.20;4.60;;;20.20;28.30;;;;;;5203556;28;20434;-52
2022/04/29 13:12:39;;;;;;;5.87;4.10;;;20.10;28.60;;;;;;5211635;28;20214;-50
2022/04/29 13:15:11;;;;;;;5.43;3.70;;;20.00;28.50;;;;;;5199275;28;20831;-50
2022/04/29 13:17:42;;;;;;;7.00;3.87;;;20.00;28.50;;;;;;5196770;28;20274;-51
2022/04/29 13:20:12;;;;;;;4.63;3.87;;;20.10;28.20;;;;;;5195842;28;21041;-51
2022/04/29 13:22:43;;;;;;;6.37;3.80;;;19.90;28.40;;;;;;5209842;28;20472;-51
2022/04/29 13:25:13;;;;;;;12.00;4.57;;;19.90;28.60;;;;;;5208999;28;20299;-53
2022/04/29 13:27:44;;;;;;;5.63;3.90;;;19.70;28.70;;;;;;5197063;28;20668;-51
2022/04/29 13:30:15;;;;;;;6.03;4.13;;;19.70;28.90;;;;;;5207331;28;20668;-53
2022/04/29 13:32:45;;;;;;;6.10;4.07;;;19.60;29.00;;;;;;5200806;28;20196;-51
2022/04/29 13:35:16;;;;;;;9.73;7.33;;;19.50;28.90;;;;;;5200180;28;20263;-51
2022/04/29 13:37:47;;;;;;;11.10;6.20;;;19.70;28.90;;;;;;5221359;28;20230;-50
2022/04/29 13:40:17;;;;;;;10.20;4.80;;;20.10;28.70;;;;;;5202828;28;20194;-52
2022/04/29 13:42:48;;;;;;;4.33;3.93;;;20.60;28.40;;;;;;5222071;28;20204;-55
2022/04/29 13:45:20;;;;;;;10.80;5.30;;;20.70;28.00;;;;;;5198786;28;20187;-51
2022/04/29 13:47:51;;;;;;;19.97;11.37;;;20.90;27.90;;;;;;5200996;28;20694;-52
2022/04/29 13:50:22;;;;;;;30.43;14.83;;;20.90;27.50;;;;;;5197333;28;20517;-51
2022/04/29 13:53:07;;;;;;;23.03;5.90;;;20.80;27.50;;;;;;5208735;23;20465;-56